LAKE NATOMA (NIMBUS DAM) (NAT)

Elevation: 132' · AMERICAN R basin · Operator: US Bureau of Reclamation

Provisional data, subject to change.
Query executed Saturday at 18:13:58   clock

Select a sensor type for a plot of data.
Note: Reservoir Flows are daily averages.

Earlier

Date RES ELE    STORAGE    RES CHG    OUTFLOW    INFLOW    SPILL    DIS PWR   
 FEET   AF   AF   CFS   CFS   CFS   CFS  
11/21/2014 123.51 8031 212 1054 1161 38 941
11/22/2014 124.38 8451 420 1047 1259 0 972
11/23/2014 124.69 8606 155 1049 1127 0 974
11/24/2014 124.03 8276 -330 1062 896 0 974
11/25/2014 124.10 8311 35 1068 1087 0 973
11/26/2014 123.91 8219 -92 1067 1022 0 972
11/27/2014 123.66 8101 -118 1059 1001 0 964
11/28/2014 123.95 8238 137 1042 1112 0 961
11/29/2014 123.96 8242 4 1039 1041 0 964
11/30/2014 123.78 8158 -84 1034 992 0 959
12/01/2014 123.19 7880 -278 955 815 0 880
12/02/2014 123.25 7909 29 929 944 0 854
12/03/2014 124.45 8486 577 921 1212 0 846
12/04/2014 123.07 7824 -662 950 616 0 875
12/05/2014 122.89 7742 -82 953 920 0 878
12/06/2014 122.33 7490 -252 948 829 0 873
12/07/2014 122.11 7391 -99 948 906 0 873
12/08/2014 122.05 7364 -27 949 936 0 877
12/09/2014 121.95 7320 -44 948 927 0 878
12/10/2014 122.85 7724 404 932 1136 0 862
12/11/2014 123.02 7800 76 911 949 0 841
12/12/2014 123.12 7847 47 940 964 0 870
12/13/2014 122.38 7512 -335 933 764 0 863
12/14/2014 122.02 7350 -162 923 841 0 853
12/15/2014 122.31 7481 131 933 999 0 863
12/16/2014 124.01 8266 785 935 1331 0 865
12/17/2014 124.14 8331 65 928 961 0 858
12/18/2014 124.18 8351 20 930 940 0 860
12/19/2014 123.72 8129 -222 928 816 0 858
12/20/2014 -- -- -- -- -- -- --

Later | Latest

Warning! This data is preliminary and subject to revision.

Show NAT Map | Plot NAT Data | 1 Month NAT Data | Real-Time NAT Data | NAT Info